sensor_id;sensor_type;location;lat;lon;timestamp;pressure;altitude;pressure_sealevel;temperature;humidity
46129;BME280;31860;45.186;5.790;2023-07-09T00:02:11;99391.38;;;27.45;83.93
46129;BME280;31860;45.186;5.790;2023-07-09T00:04:36;99392.22;;;27.45;83.36
46129;BME280;31860;45.186;5.790;2023-07-09T00:07:03;99388.78;;;27.43;83.61
46129;BME280;31860;45.186;5.790;2023-07-09T00:09:29;99388.97;;;27.40;84.20
46129;BME280;31860;45.186;5.790;2023-07-09T00:11:54;99399.69;;;27.40;84.38
46129;BME280;31860;45.186;5.790;2023-07-09T00:14:20;99390.88;;;27.38;85.18
46129;BME280;31860;45.186;5.790;2023-07-09T00:16:46;99394.00;;;27.32;87.04
46129;BME280;31860;45.186;5.790;2023-07-09T00:19:17;99400.09;;;27.34;87.81
46129;BME280;31860;45.186;5.790;2023-07-09T00:21:44;99398.38;;;27.33;88.04
46129;BME280;31860;45.186;5.790;2023-07-09T00:24:11;99396.94;;;27.28;88.81
46129;BME280;31860;45.186;5.790;2023-07-09T00:26:36;99401.53;;;27.26;88.82
46129;BME280;31860;45.186;5.790;2023-07-09T00:29:04;99388.88;;;27.28;88.02
46129;BME280;31860;45.186;5.790;2023-07-09T00:31:30;99392.63;;;27.25;87.58
46129;BME280;31860;45.186;5.790;2023-07-09T00:33:55;99389.94;;;27.25;87.22
46129;BME280;31860;45.186;5.790;2023-07-09T00:36:39;99402.59;;;27.23;87.72
46129;BME280;31860;45.186;5.790;2023-07-09T00:39:15;99405.25;;;27.23;87.49
46129;BME280;31860;45.186;5.790;2023-07-09T00:41:41;99404.44;;;27.23;86.72
46129;BME280;31860;45.186;5.790;2023-07-09T00:44:29;99401.75;;;27.23;87.25
46129;BME280;31860;45.186;5.790;2023-07-09T00:49:46;99405.75;;;27.15;90.36
46129;BME280;31860;45.186;5.790;2023-07-09T00:52:25;99412.97;;;27.15;89.80
46129;BME280;31860;45.186;5.790;2023-07-09T00:54:55;99420.16;;;27.14;88.32
46129;BME280;31860;45.186;5.790;2023-07-09T00:57:23;99415.81;;;27.12;89.14
46129;BME280;31860;45.186;5.790;2023-07-09T00:59:58;99417.94;;;27.07;89.92
46129;BME280;31860;45.186;5.790;2023-07-09T01:02:25;99418.81;;;27.07;88.84
46129;BME280;31860;45.186;5.790;2023-07-09T01:04:54;99429.34;;;27.10;88.48
46129;BME280;31860;45.186;5.790;2023-07-09T01:07:21;99426.66;;;27.10;87.80
46129;BME280;31860;45.186;5.790;2023-07-09T01:09:46;99426.00;;;27.07;88.24
46129;BME280;31860;45.186;5.790;2023-07-09T01:12:13;99420.81;;;27.04;88.35
46129;BME280;31860;45.186;5.790;2023-07-09T01:14:40;99421.78;;;27.03;88.04
46129;BME280;31860;45.186;5.790;2023-07-09T01:17:07;99422.56;;;27.05;88.20
46129;BME280;31860;45.186;5.790;2023-07-09T01:19:43;99419.97;;;27.03;88.43
46129;BME280;31860;45.186;5.790;2023-07-09T01:22:10;99421.56;;;27.06;88.12
46129;BME280;31860;45.186;5.790;2023-07-09T01:24:58;99423.41;;;27.05;88.91
46129;BME280;31860;45.186;5.790;2023-07-09T01:27:37;99420.81;;;27.04;88.31
46129;BME280;31860;45.186;5.790;2023-07-09T01:30:07;99419.09;;;27.03;88.28
46129;BME280;31860;45.186;5.790;2023-07-09T01:32:33;99416.69;;;26.98;88.66
46129;BME280;31860;45.186;5.790;2023-07-09T01:35:04;99419.38;;;26.98;89.50
46129;BME280;31860;45.186;5.790;2023-07-09T01:37:35;99414.88;;;26.99;89.80
46129;BME280;31860;45.186;5.790;2023-07-09T01:40:02;99422.06;;;26.98;89.30
46129;BME280;31860;45.186;5.790;2023-07-09T01:42:30;99422.00;;;27.00;89.44
46129;BME280;31860;45.186;5.790;2023-07-09T01:44:56;99417.47;;;27.00;89.68
46129;BME280;31860;45.186;5.790;2023-07-09T01:47:22;99422.00;;;27.00;89.47
46129;BME280;31860;45.186;5.790;2023-07-09T01:49:49;99414.31;;;26.94;89.84
46129;BME280;31860;45.186;5.790;2023-07-09T01:52:16;99421.09;;;26.85;90.66
46129;BME280;31860;45.186;5.790;2023-07-09T01:54:44;99427.63;;;26.81;90.53
46129;BME280;31860;45.186;5.790;2023-07-09T01:59:45;99424.47;;;26.75;91.34
46129;BME280;31860;45.186;5.790;2023-07-09T02:02:10;99426.19;;;26.76;91.12
46129;BME280;31860;45.186;5.790;2023-07-09T02:04:44;99425.34;;;26.75;91.04
46129;BME280;31860;45.186;5.790;2023-07-09T02:07:10;99431.66;;;26.74;90.89
46129;BME280;31860;45.186;5.790;2023-07-09T02:09:35;99435.19;;;26.75;91.34
46129;BME280;31860;45.186;5.790;2023-07-09T02:12:00;99438.75;;;26.75;90.97
46129;BME280;31860;45.186;5.790;2023-07-09T02:14:27;99441.50;;;26.74;91.30
46129;BME280;31860;45.186;5.790;2023-07-09T02:16:53;99439.13;;;26.69;91.75
46129;BME280;31860;45.186;5.790;2023-07-09T02:19:18;99437.34;;;26.68;91.68
46129;BME280;31860;45.186;5.790;2023-07-09T02:21:44;99437.34;;;26.68;92.00
46129;BME280;31860;45.186;5.790;2023-07-09T02:24:09;99434.38;;;26.59;92.82
46129;BME280;31860;45.186;5.790;2023-07-09T02:26:34;99430.94;;;26.57;92.89
46129;BME280;31860;45.186;5.790;2023-07-09T02:29:00;99435.34;;;26.58;92.83
46129;BME280;31860;45.186;5.790;2023-07-09T02:31:25;99438.88;;;26.58;92.93
46129;BME280;31860;45.186;5.790;2023-07-09T02:33:55;99444.16;;;26.60;92.80
46129;BME280;31860;45.186;5.790;2023-07-09T02:36:21;99442.34;;;26.60;94.17
46129;BME280;31860;45.186;5.790;2023-07-09T02:38:46;99443.38;;;26.58;97.29
46129;BME280;31860;45.186;5.790;2023-07-09T02:41:12;99445.19;;;26.57;99.79
46129;BME280;31860;45.186;5.790;2023-07-09T02:43:37;99438.28;;;26.53;100.00
46129;BME280;31860;45.186;5.790;2023-07-09T02:46:03;99443.06;;;26.48;100.00
46129;BME280;31860;45.186;5.790;2023-07-09T02:48:28;99440.28;;;26.50;100.00
46129;BME280;31860;45.186;5.790;2023-07-09T02:50:53;99440.41;;;26.48;100.00
46129;BME280;31860;45.186;5.790;2023-07-09T02:53:20;99436.06;;;26.46;100.00
46129;BME280;31860;45.186;5.790;2023-07-09T02:55:46;99438.84;;;26.44;100.00
46129;BME280;31860;45.186;5.790;2023-07-09T02:58:11;99444.22;;;26.44;100.00
46129;BME280;31860;45.186;5.790;2023-07-09T03:00:37;99446.03;;;26.44;100.00
46129;BME280;31860;45.186;5.790;2023-07-09T03:03:02;99439.91;;;26.42;100.00
46129;BME280;31860;45.186;5.790;2023-07-09T03:05:27;99442.88;;;26.37;100.00
46129;BME280;31860;45.186;5.790;2023-07-09T03:07:53;99442.28;;;26.32;100.00
46129;BME280;31860;45.186;5.790;2023-07-09T03:10:18;99443.13;;;26.33;100.00
46129;BME280;31860;45.186;5.790;2023-07-09T03:12:44;99445.91;;;26.31;100.00
46129;BME280;31860;45.186;5.790;2023-07-09T03:15:09;99456.97;;;26.25;100.00
46129;BME280;31860;45.186;5.790;2023-07-09T03:17:34;99453.47;;;26.24;100.00
46129;BME280;31860;45.186;5.790;2023-07-09T03:20:00;99447.13;;;26.25;100.00
46129;BME280;31860;45.186;5.790;2023-07-09T03:22:25;99444.56;;;26.24;100.00
46129;BME280;31860;45.186;5.790;2023-07-09T03:24:50;99433.94;;;26.22;99.89
46129;BME280;31860;45.186;5.790;2023-07-09T03:27:16;99448.09;;;26.24;99.69
46129;BME280;31860;45.186;5.790;2023-07-09T03:29:41;99449.13;;;26.22;99.83
46129;BME280;31860;45.186;5.790;2023-07-09T03:32:07;99457.28;;;26.20;99.46
46129;BME280;31860;45.186;5.790;2023-07-09T03:34:32;99454.75;;;26.17;100.00
46129;BME280;31860;45.186;5.790;2023-07-09T03:36:57;99453.91;;;26.17;99.57
46129;BME280;31860;45.186;5.790;2023-07-09T03:39:23;99456.59;;;26.17;99.27
46129;BME280;31860;45.186;5.790;2023-07-09T03:41:48;99462.78;;;26.17;99.18
46129;BME280;31860;45.186;5.790;2023-07-09T03:44:14;99463.66;;;26.18;99.38
46129;BME280;31860;45.186;5.790;2023-07-09T03:46:39;99461.09;;;26.16;99.71
46129;BME280;31860;45.186;5.790;2023-07-09T03:49:04;99463.75;;;26.16;99.42
46129;BME280;31860;45.186;5.790;2023-07-09T03:51:30;99454.84;;;26.16;99.70
46129;BME280;31860;45.186;5.790;2023-07-09T03:53:55;99463.84;;;26.15;100.00
46129;BME280;31860;45.186;5.790;2023-07-09T03:56:21;99469.22;;;26.15;100.00
46129;BME280;31860;45.186;5.790;2023-07-09T03:58:46;99471.03;;;26.14;100.00
46129;BME280;31860;45.186;5.790;2023-07-09T04:01:11;99474.63;;;26.13;100.00
46129;BME280;31860;45.186;5.790;2023-07-09T04:03:37;99473.81;;;26.13;100.00
46129;BME280;31860;45.186;5.790;2023-07-09T04:06:02;99473.91;;;26.11;100.00
46129;BME280;31860;45.186;5.790;2023-07-09T04:08:28;99465.09;;;26.09;100.00
46129;BME280;31860;45.186;5.790;2023-07-09T04:10:54;99475.78;;;26.09;100.00
46129;BME280;31860;45.186;5.790;2023-07-09T04:13:21;99476.63;;;26.10;100.00
46129;BME280;31860;45.186;5.790;2023-07-09T04:15:47;99474.94;;;26.09;100.00
46129;BME280;31860;45.186;5.790;2023-07-09T04:18:12;99469.56;;;26.09;100.00
46129;BME280;31860;45.186;5.790;2023-07-09T04:20:38;99475.69;;;26.11;100.00
46129;BME280;31860;45.186;5.790;2023-07-09T04:23:05;99471.22;;;26.11;100.00
46129;BME280;31860;45.186;5.790;2023-07-09T04:25:30;99482.97;;;26.09;100.00
46129;BME280;31860;45.186;5.790;2023-07-09T04:27:56;99478.72;;;26.05;100.00
46129;BME280;31860;45.186;5.790;2023-07-09T04:30:21;99477.03;;;26.02;100.00
46129;BME280;31860;45.186;5.790;2023-07-09T04:32:47;99485.09;;;26.02;100.00
46129;BME280;31860;45.186;5.790;2023-07-09T04:35:13;99484.16;;;26.03;100.00
46129;BME280;31860;45.186;5.790;2023-07-09T04:37:40;99483.28;;;26.03;100.00
46129;BME280;31860;45.186;5.790;2023-07-09T04:40:07;99474.25;;;26.05;100.00
46129;BME280;31860;45.186;5.790;2023-07-09T04:42:36;99471.56;;;26.05;100.00
46129;BME280;31860;45.186;5.790;2023-07-09T04:45:01;99467.81;;;26.08;100.00
46129;BME280;31860;45.186;5.790;2023-07-09T04:47:27;99469.47;;;26.10;100.00
46129;BME280;31860;45.186;5.790;2023-07-09T04:49:52;99471.13;;;26.13;100.00
46129;BME280;31860;45.186;5.790;2023-07-09T04:52:18;99465.00;;;26.11;100.00
46129;BME280;31860;45.186;5.790;2023-07-09T04:54:43;99460.66;;;26.08;100.00
46129;BME280;31860;45.186;5.790;2023-07-09T04:57:10;99457.88;;;26.10;100.00
46129;BME280;31860;45.186;5.790;2023-07-09T04:59:36;99466.69;;;26.12;100.00
46129;BME280;31860;45.186;5.790;2023-07-09T05:02:01;99463.09;;;26.13;100.00
46129;BME280;31860;45.186;5.790;2023-07-09T05:04:27;99469.22;;;26.15;100.00
46129;BME280;31860;45.186;5.790;2023-07-09T05:06:52;99462.88;;;26.16;100.00
46129;BME280;31860;45.186;5.790;2023-07-09T05:09:17;99466.34;;;26.18;100.00
46129;BME280;31860;45.186;5.790;2023-07-09T05:11:43;99460.53;;;26.25;100.00
46129;BME280;31860;45.186;5.790;2023-07-09T05:14:09;99455.38;;;26.22;100.00
46129;BME280;31860;45.186;5.790;2023-07-09T05:16:34;99463.13;;;26.27;100.00
46129;BME280;31860;45.186;5.790;2023-07-09T05:19:00;99462.28;;;26.27;100.00
46129;BME280;31860;45.186;5.790;2023-07-09T05:21:25;99474.03;;;26.24;100.00
46129;BME280;31860;45.186;5.790;2023-07-09T05:23:50;99472.13;;;26.26;100.00
46129;BME280;31860;45.186;5.790;2023-07-09T05:26:16;99467.34;;;26.31;100.00
46129;BME280;31860;45.186;5.790;2023-07-09T05:28:41;99455.44;;;26.21;100.00
46129;BME280;31860;45.186;5.790;2023-07-09T05:31:07;99456.03;;;26.26;100.00
46129;BME280;31860;45.186;5.790;2023-07-09T05:33:32;99477.03;;;26.34;100.00
46129;BME280;31860;45.186;5.790;2023-07-09T05:35:58;99465.16;;;26.38;100.00
46129;BME280;31860;45.186;5.790;2023-07-09T05:38:24;99469.91;;;26.33;100.00
46129;BME280;31860;45.186;5.790;2023-07-09T05:40:59;99470.78;;;26.33;100.00
46129;BME280;31860;45.186;5.790;2023-07-09T05:43:25;99460.66;;;26.38;100.00
46129;BME280;31860;45.186;5.790;2023-07-09T05:45:50;99464.78;;;26.44;100.00
46129;BME280;31860;45.186;5.790;2023-07-09T05:48:15;99465.38;;;26.49;100.00
46129;BME280;31860;45.186;5.790;2023-07-09T05:50:41;99465.78;;;26.57;100.00
46129;BME280;31860;45.186;5.790;2023-07-09T05:53:07;99466.47;;;26.60;100.00
46129;BME280;31860;45.186;5.790;2023-07-09T05:55:32;99469.53;;;26.68;100.00
46129;BME280;31860;45.186;5.790;2023-07-09T05:57:57;99475.50;;;26.73;100.00
46129;BME280;31860;45.186;5.790;2023-07-09T06:00:23;99476.75;;;26.82;100.00
46129;BME280;31860;45.186;5.790;2023-07-09T06:02:48;99477.06;;;26.91;100.00
46129;BME280;31860;45.186;5.790;2023-07-09T06:05:15;99475.63;;;27.00;100.00
46129;BME280;31860;45.186;5.790;2023-07-09T06:07:41;99478.69;;;27.08;100.00
46129;BME280;31860;45.186;5.790;2023-07-09T06:10:07;99476.13;;;27.21;98.67
46129;BME280;31860;45.186;5.790;2023-07-09T06:12:34;99472.84;;;27.30;99.81
46129;BME280;31860;45.186;5.790;2023-07-09T06:14:59;99469.81;;;27.36;100.00
46129;BME280;31860;45.186;5.790;2023-07-09T06:17:25;99472.84;;;27.44;100.00
46129;BME280;31860;45.186;5.790;2023-07-09T06:19:50;99468.91;;;27.49;100.00
46129;BME280;31860;45.186;5.790;2023-07-09T06:22:16;99471.09;;;27.57;99.35
46129;BME280;31860;45.186;5.790;2023-07-09T06:24:41;99479.41;;;27.66;99.81
46129;BME280;31860;45.186;5.790;2023-07-09T06:27:06;99481.69;;;27.72;98.23
46129;BME280;31860;45.186;5.790;2023-07-09T06:29:32;99474.00;;;27.80;96.70
46129;BME280;31860;45.186;5.790;2023-07-09T06:31:57;99468.13;;;27.88;94.88
46129;BME280;31860;45.186;5.790;2023-07-09T06:34:22;99471.09;;;27.97;93.17
46129;BME280;31860;45.186;5.790;2023-07-09T06:36:48;99478.66;;;28.05;90.62
46129;BME280;31860;45.186;5.790;2023-07-09T06:39:13;99479.31;;;28.08;87.81
46129;BME280;31860;45.186;5.790;2023-07-09T06:41:39;99473.53;;;28.15;85.45
46129;BME280;31860;45.186;5.790;2023-07-09T06:44:08;99475.88;;;28.19;82.17
46129;BME280;31860;45.186;5.790;2023-07-09T06:46:35;99481.72;;;28.26;82.47
46129;BME280;31860;45.186;5.790;2023-07-09T06:49:01;99484.97;;;28.31;82.54
46129;BME280;31860;45.186;5.790;2023-07-09T06:51:27;99488.00;;;28.39;82.29
46129;BME280;31860;45.186;5.790;2023-07-09T06:53:52;99491.16;;;28.45;82.74
46129;BME280;31860;45.186;5.790;2023-07-09T06:56:17;99479.88;;;28.53;83.15
46129;BME280;31860;45.186;5.790;2023-07-09T06:58:43;99486.75;;;28.57;83.32
46129;BME280;31860;45.186;5.790;2023-07-09T07:01:11;99481.94;;;28.62;83.05
46129;BME280;31860;45.186;5.790;2023-07-09T07:03:37;99485.16;;;28.67;83.96
46129;BME280;31860;45.186;5.790;2023-07-09T07:06:03;99485.69;;;28.72;84.72
46129;BME280;31860;45.186;5.790;2023-07-09T07:08:31;99479.78;;;28.79;85.18
46129;BME280;31860;45.186;5.790;2023-07-09T07:10:58;99471.31;;;28.85;84.91
46129;BME280;31860;45.186;5.790;2023-07-09T07:13:35;99477.78;;;28.95;84.50
46129;BME280;31860;45.186;5.790;2023-07-09T07:16:06;99475.28;;;29.05;83.85
46129;BME280;31860;45.186;5.790;2023-07-09T07:18:32;99475.53;;;29.15;83.08
46129;BME280;31860;45.186;5.790;2023-07-09T07:20:57;99485.00;;;29.20;82.42
46129;BME280;31860;45.186;5.790;2023-07-09T07:23:23;99485.19;;;29.30;81.56
46129;BME280;31860;45.186;5.790;2023-07-09T07:25:49;99480.09;;;29.38;81.41
46129;BME280;31860;45.186;5.790;2023-07-09T07:28:15;99488.09;;;29.39;79.75
46129;BME280;31860;45.186;5.790;2023-07-09T07:30:41;99483.88;;;29.48;78.58
46129;BME280;31860;45.186;5.790;2023-07-09T07:33:07;99479.88;;;29.53;77.33
46129;BME280;31860;45.186;5.790;2023-07-09T07:35:32;99476.50;;;29.62;75.51
46129;BME280;31860;45.186;5.790;2023-07-09T07:37:58;99481.34;;;29.70;74.78
46129;BME280;31860;45.186;5.790;2023-07-09T07:40:23;99477.88;;;29.80;73.93
46129;BME280;31860;45.186;5.790;2023-07-09T07:42:49;99472.88;;;29.87;72.35
46129;BME280;31860;45.186;5.790;2023-07-09T07:45:15;99470.72;;;29.92;69.82
46129;BME280;31860;45.186;5.790;2023-07-09T07:47:40;99470.03;;;30.01;69.04
46129;BME280;31860;45.186;5.790;2023-07-09T07:50:07;99473.13;;;30.08;68.47
46129;BME280;31860;45.186;5.790;2023-07-09T07:52:32;99474.41;;;30.15;67.25
46129;BME280;31860;45.186;5.790;2023-07-09T07:55:01;99474.66;;;30.23;65.86
46129;BME280;31860;45.186;5.790;2023-07-09T07:57:26;99480.50;;;30.29;65.22
46129;BME280;31860;45.186;5.790;2023-07-09T07:59:51;99467.50;;;30.34;64.53
46129;BME280;31860;45.186;5.790;2023-07-09T08:02:17;99465.97;;;30.43;64.38
46129;BME280;31860;45.186;5.790;2023-07-09T08:04:42;99459.34;;;30.47;63.70
46129;BME280;31860;45.186;5.790;2023-07-09T08:07:09;99457.16;;;30.52;62.75
46129;BME280;31860;45.186;5.790;2023-07-09T08:09:35;99462.06;;;30.58;62.81
46129;BME280;31860;45.186;5.790;2023-07-09T08:12:02;99455.94;;;30.56;62.40
46129;BME280;31860;45.186;5.790;2023-07-09T08:14:34;99451.63;;;30.53;61.89
46129;BME280;31860;45.186;5.790;2023-07-09T08:16:59;99459.72;;;30.53;61.60
46129;BME280;31860;45.186;5.790;2023-07-09T08:19:24;99457.28;;;30.50;61.61
46129;BME280;31860;45.186;5.790;2023-07-09T08:21:50;99454.69;;;30.49;60.56
46129;BME280;31860;45.186;5.790;2023-07-09T08:24:15;99452.97;;;30.48;60.59
46129;BME280;31860;45.186;5.790;2023-07-09T08:26:40;99452.00;;;30.49;60.71
46129;BME280;31860;45.186;5.790;2023-07-09T08:29:06;99452.00;;;30.49;60.90
46129;BME280;31860;45.186;5.790;2023-07-09T08:31:31;99455.78;;;30.46;60.54
46129;BME280;31860;45.186;5.790;2023-07-09T08:33:56;99461.81;;;30.50;60.47
46129;BME280;31860;45.186;5.790;2023-07-09T08:36:23;99464.50;;;30.50;60.52
46129;BME280;31860;45.186;5.790;2023-07-09T08:38:48;99460.81;;;30.51;59.85
46129;BME280;31860;45.186;5.790;2023-07-09T08:47:18;99456.06;;;30.54;56.13
46129;BME280;31860;45.186;5.790;2023-07-09T08:50:01;99454.94;;;30.57;56.74
46129;BME280;31860;45.186;5.790;2023-07-09T08:52:32;99457.50;;;30.58;57.89
46129;BME280;31860;45.186;5.790;2023-07-09T08:55:04;99449.19;;;30.61;56.88
46129;BME280;31860;45.186;5.790;2023-07-09T08:57:39;99457.41;;;30.60;54.87
46129;BME280;31860;45.186;5.790;2023-07-09T09:00:37;99450.81;;;30.64;54.30
46129;BME280;31860;45.186;5.790;2023-07-09T09:05:54;99450.44;;;30.68;55.76
46129;BME280;31860;45.186;5.790;2023-07-09T09:10:55;99438.56;;;30.71;54.17
46129;BME280;31860;45.186;5.790;2023-07-09T09:13:25;99443.56;;;30.75;53.88
46129;BME280;31860;45.186;5.790;2023-07-09T09:15:55;99441.53;;;30.79;52.86
46129;BME280;31860;45.186;5.790;2023-07-09T09:18:26;99435.78;;;30.84;53.24
46129;BME280;31860;45.186;5.790;2023-07-09T09:21:22;99438.00;;;30.90;52.05
46129;BME280;31860;45.186;5.790;2023-07-09T09:23:54;99429.53;;;30.94;52.05
46129;BME280;31860;45.186;5.790;2023-07-09T09:26:27;99430.03;;;30.99;52.36
46129;BME280;31860;45.186;5.790;2023-07-09T09:28:54;99422.41;;;31.04;52.93
46129;BME280;31860;45.186;5.790;2023-07-09T09:31:20;99423.75;;;31.10;53.18
46129;BME280;31860;45.186;5.790;2023-07-09T09:33:48;99429.53;;;31.16;53.22
46129;BME280;31860;45.186;5.790;2023-07-09T09:36:25;99427.31;;;31.21;52.62
46129;BME280;31860;45.186;5.790;2023-07-09T09:38:51;99418.84;;;31.26;52.38
46129;BME280;31860;45.186;5.790;2023-07-09T09:41:22;99416.88;;;31.28;51.51
46129;BME280;31860;45.186;5.790;2023-07-09T09:43:50;99422.03;;;31.31;50.71
46129;BME280;31860;45.186;5.790;2023-07-09T09:46:18;99411.69;;;31.36;50.81
46129;BME280;31860;45.186;5.790;2023-07-09T09:48:46;99415.06;;;31.39;50.52
46129;BME280;31860;45.186;5.790;2023-07-09T09:51:12;99413.81;;;31.43;50.54
46129;BME280;31860;45.186;5.790;2023-07-09T09:53:39;99415.41;;;31.46;49.71
46129;BME280;31860;45.186;5.790;2023-07-09T09:56:13;99410.59;;;31.49;49.15
46129;BME280;31860;45.186;5.790;2023-07-09T09:58:40;99403.00;;;31.54;49.89
46129;BME280;31860;45.186;5.790;2023-07-09T10:01:17;99401.88;;;31.57;48.76
46129;BME280;31860;45.186;5.790;2023-07-09T10:03:43;99391.66;;;31.60;49.33
46129;BME280;31860;45.186;5.790;2023-07-09T10:06:21;99397.56;;;31.65;48.18
46129;BME280;31860;45.186;5.790;2023-07-09T10:09:46;99387.94;;;31.73;48.05
46129;BME280;31860;45.186;5.790;2023-07-09T10:17:22;99393.06;;;31.87;49.03
46129;BME280;31860;45.186;5.790;2023-07-09T10:19:57;99389.88;;;31.93;50.10
46129;BME280;31860;45.186;5.790;2023-07-09T10:22:40;99390.59;;;31.95;49.13
46129;BME280;31860;45.186;5.790;2023-07-09T10:27:59;99382.09;;;31.99;48.70
46129;BME280;31860;45.186;5.790;2023-07-09T10:30:50;99379.00;;;32.04;48.45
46129;BME280;31860;45.186;5.790;2023-07-09T10:38:51;99381.03;;;32.11;46.22
46129;BME280;31860;45.186;5.790;2023-07-09T10:41:20;99378.81;;;32.16;47.63
46129;BME280;31860;45.186;5.790;2023-07-09T10:43:50;99379.41;;;32.20;47.05
46129;BME280;31860;45.186;5.790;2023-07-09T10:46:22;99371.91;;;32.23;47.29
46129;BME280;31860;45.186;5.790;2023-07-09T10:48:51;99372.63;;;32.25;46.93
46129;BME280;31860;45.186;5.790;2023-07-09T10:51:24;99372.34;;;32.28;46.97
46129;BME280;31860;45.186;5.790;2023-07-09T10:53:57;99365.81;;;32.31;46.61
46129;BME280;31860;45.186;5.790;2023-07-09T10:56:26;99362.00;;;32.33;47.14
46129;BME280;31860;45.186;5.790;2023-07-09T10:59:03;99357.19;;;32.37;46.34
46129;BME280;31860;45.186;5.790;2023-07-09T11:01:34;99360.47;;;32.40;47.17
46129;BME280;31860;45.186;5.790;2023-07-09T11:04:06;99355.78;;;32.42;46.74
46129;BME280;31860;45.186;5.790;2023-07-09T11:06:45;99357.28;;;32.46;46.62
46129;BME280;31860;45.186;5.790;2023-07-09T11:09:33;99341.78;;;32.48;45.95
46129;BME280;31860;45.186;5.790;2023-07-09T11:12:09;99342.59;;;32.49;46.08
46129;BME280;31860;45.186;5.790;2023-07-09T11:14:40;99347.75;;;32.52;46.12
46129;BME280;31860;45.186;5.790;2023-07-09T11:17:14;99341.25;;;32.54;45.36
46129;BME280;31860;45.186;5.790;2023-07-09T11:19:48;99335.53;;;32.57;45.38
46129;BME280;31860;45.186;5.790;2023-07-09T11:22:23;99334.28;;;32.62;45.34
46129;BME280;31860;45.186;5.790;2023-07-09T11:24:53;99332.03;;;32.67;46.71
46129;BME280;31860;45.186;5.790;2023-07-09T11:27:30;99324.34;;;32.72;46.62
46129;BME280;31860;45.186;5.790;2023-07-09T11:32:47;99325.53;;;32.79;45.45
46129;BME280;31860;45.186;5.790;2023-07-09T11:35:21;99320.69;;;32.82;46.00
46129;BME280;31860;45.186;5.790;2023-07-09T11:37:47;99321.56;;;32.83;45.66
46129;BME280;31860;45.186;5.790;2023-07-09T11:40:13;99304.88;;;32.87;45.31
46129;BME280;31860;45.186;5.790;2023-07-09T11:42:53;99305.59;;;32.89;45.08
46129;BME280;31860;45.186;5.790;2023-07-09T11:45:31;99296.22;;;32.93;44.56
46129;BME280;31860;45.186;5.790;2023-07-09T11:50:49;99295.69;;;32.99;45.64
46129;BME280;31860;45.186;5.790;2023-07-09T11:55:49;99291.44;;;33.06;45.83
46129;BME280;31860;45.186;5.790;2023-07-09T11:58:17;99293.84;;;33.09;45.96
46129;BME280;31860;45.186;5.790;2023-07-09T12:00:48;99290.88;;;33.12;45.05
46129;BME280;31860;45.186;5.790;2023-07-09T12:03:18;99281.50;;;33.16;45.13
46129;BME280;31860;45.186;5.790;2023-07-09T12:05:50;99282.22;;;33.18;44.34
46129;BME280;31860;45.186;5.790;2023-07-09T12:08:17;99272.22;;;33.19;45.01
46129;BME280;31860;45.186;5.790;2023-07-09T12:10:44;99272.91;;;33.21;46.07
46129;BME280;31860;45.186;5.790;2023-07-09T12:13:11;99269.94;;;33.24;46.37
46129;BME280;31860;45.186;5.790;2023-07-09T12:15:38;99265.25;;;33.26;45.27
46129;BME280;31860;45.186;5.790;2023-07-09T12:18:11;99256.97;;;33.27;45.05
46129;BME280;31860;45.186;5.790;2023-07-09T12:20:37;99260.41;;;33.29;45.13
46129;BME280;31860;45.186;5.790;2023-07-09T12:23:28;99257.25;;;33.34;43.63
46129;BME280;31860;45.186;5.790;2023-07-09T12:25:54;99261.69;;;33.35;44.35
46129;BME280;31860;45.186;5.790;2023-07-09T12:28:21;99253.56;;;33.35;44.06
46129;BME280;31860;45.186;5.790;2023-07-09T12:30:52;99257.00;;;33.37;42.64
46129;BME280;31860;45.186;5.790;2023-07-09T12:33:27;99256.84;;;33.38;43.48
46129;BME280;31860;45.186;5.790;2023-07-09T12:35:58;99249.41;;;33.40;42.41
46129;BME280;31860;45.186;5.790;2023-07-09T12:38:26;99246.72;;;33.40;43.31
46129;BME280;31860;45.186;5.790;2023-07-09T12:40:53;99243.84;;;33.42;43.05
46129;BME280;31860;45.186;5.790;2023-07-09T12:43:30;99243.59;;;33.45;42.69
46129;BME280;31860;45.186;5.790;2023-07-09T12:45:58;99241.72;;;33.45;43.24
46129;BME280;31860;45.186;5.790;2023-07-09T12:48:28;99245.31;;;33.46;42.86
46129;BME280;31860;45.186;5.790;2023-07-09T12:50:57;99246.03;;;33.48;43.56
46129;BME280;31860;45.186;5.790;2023-07-09T12:53:25;99241.31;;;33.50;43.44
46129;BME280;31860;45.186;5.790;2023-07-09T12:55:58;99227.78;;;33.50;42.61
46129;BME280;31860;45.186;5.790;2023-07-09T12:58:36;99232.06;;;33.53;42.83
46129;BME280;31860;45.186;5.790;2023-07-09T13:01:13;99233.75;;;33.54;42.55
46129;BME280;31860;45.186;5.790;2023-07-09T13:03:39;99225.47;;;33.55;43.05
46129;BME280;31860;45.186;5.790;2023-07-09T13:06:27;99226.34;;;33.56;42.01
46129;BME280;31860;45.186;5.790;2023-07-09T13:08:57;99226.34;;;33.56;42.17
46129;BME280;31860;45.186;5.790;2023-07-09T13:11:23;99226.19;;;33.57;42.21
46129;BME280;31860;45.186;5.790;2023-07-09T13:14:30;99223.63;;;33.56;41.31
46129;BME280;31860;45.186;5.790;2023-07-09T13:17:04;99215.78;;;33.43;41.87
46129;BME280;31860;45.186;5.790;2023-07-09T13:19:30;99207.50;;;33.35;42.45
46129;BME280;31860;45.186;5.790;2023-07-09T13:21:55;99215.47;;;33.36;42.66
46129;BME280;31860;45.186;5.790;2023-07-09T13:24:23;99213.06;;;33.33;42.19
46129;BME280;31860;45.186;5.790;2023-07-09T13:26:49;99207.66;;;33.33;42.25
46129;BME280;31860;45.186;5.790;2023-07-09T13:29:16;99208.22;;;33.37;42.48
46129;BME280;31860;45.186;5.790;2023-07-09T13:31:43;99210.63;;;33.40;42.84
46129;BME280;31860;45.186;5.790;2023-07-09T13:34:26;99203.06;;;33.43;42.71
46129;BME280;31860;45.186;5.790;2023-07-09T13:36:54;99196.66;;;33.44;42.61
46129;BME280;31860;45.186;5.790;2023-07-09T13:39:22;99196.66;;;33.44;42.76
46129;BME280;31860;45.186;5.790;2023-07-09T13:41:49;99199.09;;;33.47;42.77
46129;BME280;31860;45.186;5.790;2023-07-09T13:44:19;99189.84;;;33.50;42.34